Time;durP1;ratioP1;P1;durP2;ratioP2;P2;SDS_P1;SDS_P2;PMS_P1;PMS_P2;Temp;Humidity;BMP_temperature;BMP_pressure;BME280_temperature;BME280_humidity;BME280_pressure;Samples;Min_cycle;Max_cycle;Signal;HPM_P1;HPM_P2
2023/11/20 00:00:50;;;;;;;4.67;1.50;;;11.80;99.90;;;;;;4976807;28;20431;-69
2023/11/20 00:03:15;;;;;;;4.47;1.30;;;11.80;99.90;;;;;;4976077;28;20218;-69
2023/11/20 00:05:41;;;;;;;4.00;1.60;;;11.80;99.90;;;;;;4976141;28;20629;-70
2023/11/20 00:08:07;;;;;;;4.43;1.43;;;11.80;99.90;;;;;;4976552;28;20611;-71
2023/11/20 00:10:34;;;;;;;5.23;1.67;;;11.80;99.90;;;;;;4976975;28;20240;-72
2023/11/20 00:12:59;;;;;;;7.73;2.50;;;11.80;99.90;;;;;;5024312;28;20212;-69
2023/11/20 00:15:25;;;;;;;7.60;1.50;;;11.80;99.90;;;;;;4976736;28;20502;-70
2023/11/20 00:17:50;;;;;;;3.40;1.30;;;11.70;99.90;;;;;;4977145;28;20248;-69
2023/11/20 00:20:16;;;;;;;3.83;1.30;;;11.70;99.90;;;;;;4975809;28;20194;-70
2023/11/20 00:22:42;;;;;;;5.77;1.60;;;11.70;99.90;;;;;;4976493;28;20188;-69
2023/11/20 00:25:07;;;;;;;6.13;1.50;;;11.70;99.90;;;;;;4976550;28;20252;-70
2023/11/20 00:27:33;;;;;;;3.73;1.50;;;11.60;99.90;;;;;;5009132;28;20194;-71
2023/11/20 00:30:00;;;;;;;6.50;1.43;;;11.60;99.90;;;;;;5001967;28;20190;-68
2023/11/20 00:32:26;;;;;;;3.50;1.20;;;11.60;99.90;;;;;;4975884;28;20420;-69
2023/11/20 00:34:51;;;;;;;7.30;2.20;;;11.50;99.90;;;;;;4980397;28;20239;-67
2023/11/20 00:37:18;;;;;;;5.83;2.10;;;11.40;99.90;;;;;;4979909;28;20238;-69
2023/11/20 00:39:43;;;;;;;4.90;2.40;;;11.30;99.90;;;;;;4981472;28;20199;-69
2023/11/20 00:42:09;;;;;;;4.83;1.80;;;11.20;99.90;;;;;;4996655;28;20730;-69
2023/11/20 00:44:36;;;;;;;8.23;1.93;;;11.10;99.90;;;;;;5021433;28;20250;-69
2023/11/20 00:47:01;;;;;;;6.50;2.70;;;11.00;99.90;;;;;;4985766;28;20188;-69
2023/11/20 00:49:27;;;;;;;10.43;2.70;;;10.90;99.90;;;;;;4980721;28;20466;-70
2023/11/20 00:51:52;;;;;;;8.70;2.40;;;10.90;99.90;;;;;;4980403;28;20240;-69
2023/11/20 00:54:18;;;;;;;9.30;2.83;;;10.80;99.90;;;;;;4981599;28;20255;-69
2023/11/20 00:56:43;;;;;;;12.60;2.57;;;10.80;99.90;;;;;;4983849;28;20243;-69
2023/11/20 00:59:09;;;;;;;11.87;3.07;;;10.70;99.90;;;;;;5013950;28;20464;-69
2023/11/20 01:01:37;;;;;;;8.13;2.47;;;10.70;99.90;;;;;;4982089;28;20298;-69
2023/11/20 01:04:03;;;;;;;10.60;1.80;;;10.70;99.90;;;;;;4981244;28;20664;-70
2023/11/20 01:06:29;;;;;;;5.00;1.90;;;10.70;99.90;;;;;;4979498;28;20460;-70
2023/11/20 01:08:54;;;;;;;10.90;2.90;;;10.70;99.90;;;;;;4978548;28;20422;-68
2023/11/20 01:11:20;;;;;;;9.23;2.37;;;10.70;99.90;;;;;;4976672;28;20233;-69
2023/11/20 01:13:46;;;;;;;8.63;2.10;;;10.70;99.90;;;;;;5003095;28;20223;-69
2023/11/20 01:16:12;;;;;;;9.23;1.97;;;10.80;99.90;;;;;;5008619;28;20450;-68
2023/11/20 01:18:38;;;;;;;7.80;1.60;;;10.80;99.90;;;;;;4977496;28;20200;-69
2023/11/20 01:21:04;;;;;;;7.13;2.07;;;10.90;99.90;;;;;;4977572;28;20212;-68
2023/11/20 01:23:29;;;;;;;7.80;1.90;;;10.90;99.90;;;;;;4977891;28;20589;-68
2023/11/20 01:25:56;;;;;;;7.40;1.97;;;10.90;99.90;;;;;;4977384;28;20440;-68
2023/11/20 01:28:22;;;;;;;4.83;1.43;;;10.80;99.90;;;;;;4998099;28;20429;-68
2023/11/20 01:30:48;;;;;;;6.50;2.07;;;10.80;99.90;;;;;;5026199;28;20921;-68
2023/11/20 01:33:15;;;;;;;5.97;2.00;;;10.80;99.90;;;;;;4976653;28;20294;-69
2023/11/20 01:35:40;;;;;;;3.87;1.33;;;10.80;99.90;;;;;;4976630;28;20636;-69
2023/11/20 01:38:06;;;;;;;4.23;1.47;;;10.90;99.90;;;;;;4976548;28;20191;-69
2023/11/20 01:40:32;;;;;;;9.93;1.53;;;10.90;99.90;;;;;;4975683;28;20195;-68
2023/11/20 01:42:58;;;;;;;9.20;2.00;;;10.90;99.90;;;;;;4992561;28;20512;-68
2023/11/20 01:45:23;;;;;;;7.87;1.63;;;11.00;99.90;;;;;;4997086;28;20489;-68
2023/11/20 01:47:50;;;;;;;6.43;1.40;;;11.00;99.90;;;;;;4976188;28;20354;-67
2023/11/20 01:50:17;;;;;;;5.70;1.80;;;11.00;99.90;;;;;;4975666;28;20554;-68
2023/11/20 01:52:46;;;;;;;6.33;1.73;;;11.10;99.90;;;;;;4976795;28;20271;-68
2023/11/20 01:55:13;;;;;;;4.37;1.43;;;11.10;99.90;;;;;;4974895;28;20446;-68
2023/11/20 01:57:43;;;;;;;6.37;1.80;;;11.00;99.90;;;;;;4986474;28;20679;-68
2023/11/20 02:00:09;;;;;;;7.33;1.33;;;11.10;99.90;;;;;;4975222;28;20887;-69
2023/11/20 02:02:42;;;;;;;9.60;1.60;;;11.10;99.90;;;;;;4977407;28;20404;-68
2023/11/20 02:05:08;;;;;;;5.87;1.30;;;11.10;99.90;;;;;;4975173;28;20441;-69
2023/11/20 02:07:37;;;;;;;11.87;2.10;;;11.00;99.90;;;;;;4976442;28;20497;-70
2023/11/20 02:10:04;;;;;;;4.50;2.10;;;11.00;99.90;;;;;;5008554;28;20802;-69
2023/11/20 02:12:30;;;;;;;8.13;1.60;;;10.90;99.90;;;;;;4983004;28;20535;-68
2023/11/20 02:14:56;;;;;;;8.90;1.87;;;10.80;99.90;;;;;;4984390;28;20493;-68
2023/11/20 02:17:22;;;;;;;6.43;1.70;;;10.80;99.90;;;;;;4974296;28;20976;-68
2023/11/20 02:19:48;;;;;;;8.50;1.80;;;10.70;99.90;;;;;;4975093;28;20488;-68
2023/11/20 02:22:15;;;;;;;7.23;1.63;;;10.70;99.90;;;;;;4974845;28;20250;-68
2023/11/20 02:24:42;;;;;;;6.13;1.47;;;10.70;99.90;;;;;;4975618;28;20243;-68
2023/11/20 02:27:19;;;;;;;1.67;1.00;;;10.60;99.90;;;;;;4990346;28;20454;-68
2023/11/20 02:29:52;;;;;;;2.97;1.30;;;10.60;99.90;;;;;;5030617;28;20880;-69
2023/11/20 02:32:18;;;;;;;3.80;1.70;;;10.50;99.90;;;;;;4975477;28;20707;-68
2023/11/20 02:34:43;;;;;;;5.10;1.50;;;10.50;99.90;;;;;;4975894;28;20468;-68
2023/11/20 02:37:10;;;;;;;7.07;1.70;;;10.50;99.90;;;;;;4975945;28;20189;-67
2023/11/20 02:39:37;;;;;;;8.37;1.90;;;10.60;99.90;;;;;;4975689;28;20206;-68
2023/11/20 02:42:03;;;;;;;3.23;1.40;;;10.60;99.90;;;;;;4986098;28;20432;-68
2023/11/20 02:44:28;;;;;;;7.87;2.60;;;10.60;99.90;;;;;;5023692;28;20481;-68
2023/11/20 02:46:54;;;;;;;6.90;1.47;;;10.60;99.90;;;;;;5012326;28;20231;-68
2023/11/20 02:49:19;;;;;;;5.53;1.53;;;10.60;99.90;;;;;;4974761;28;20204;-68
2023/11/20 02:51:46;;;;;;;5.57;1.83;;;10.50;99.90;;;;;;4975496;28;20232;-68
2023/11/20 02:54:11;;;;;;;5.50;1.50;;;10.50;99.90;;;;;;4975451;28;20595;-68
2023/11/20 02:56:40;;;;;;;4.00;1.30;;;10.40;99.90;;;;;;4974853;28;20432;-67
2023/11/20 02:59:05;;;;;;;4.70;1.93;;;10.30;99.90;;;;;;4984742;28;20219;-67
2023/11/20 03:01:31;;;;;;;9.00;2.17;;;10.30;99.90;;;;;;4974263;28;20779;-68
2023/11/20 03:03:56;;;;;;;10.00;1.80;;;10.30;99.90;;;;;;4975475;28;20548;-68
2023/11/20 03:06:22;;;;;;;5.57;1.33;;;10.30;99.90;;;;;;4975802;28;20212;-68
2023/11/20 03:08:48;;;;;;;5.73;1.17;;;10.40;99.90;;;;;;4975502;28;20568;-69
2023/11/20 03:11:14;;;;;;;4.40;1.30;;;10.40;99.90;;;;;;4974125;28;20200;-67
2023/11/20 03:13:39;;;;;;;5.13;1.27;;;10.40;99.90;;;;;;5011180;28;20475;-67
2023/11/20 03:16:07;;;;;;;4.20;1.97;;;10.40;99.90;;;;;;5015366;28;20211;-68
2023/11/20 03:18:33;;;;;;;7.70;1.83;;;10.50;99.90;;;;;;4975101;28;20207;-68
2023/11/20 03:20:58;;;;;;;4.20;1.20;;;10.60;99.90;;;;;;4974946;28;20427;-67
2023/11/20 03:23:24;;;;;;;5.97;1.17;;;10.70;99.90;;;;;;4974055;28;20470;-67
2023/11/20 03:25:50;;;;;;;6.47;1.87;;;10.80;99.90;;;;;;4973933;28;20552;-68
2023/11/20 03:28:15;;;;;;;4.17;1.50;;;10.80;99.90;;;;;;5005280;28;20657;-67
2023/11/20 03:30:41;;;;;;;4.13;1.53;;;10.80;99.90;;;;;;4981845;28;20603;-68
2023/11/20 03:33:07;;;;;;;3.90;1.30;;;10.70;99.90;;;;;;4973378;28;20223;-68
2023/11/20 03:35:33;;;;;;;2.43;0.93;;;10.60;99.90;;;;;;4974410;28;20213;-68
2023/11/20 03:37:59;;;;;;;6.20;1.90;;;10.50;99.90;;;;;;4973811;28;20427;-68
2023/11/20 03:40:24;;;;;;;2.53;1.23;;;10.40;99.90;;;;;;4975003;28;20372;-68
2023/11/20 03:42:50;;;;;;;3.97;0.90;;;10.30;99.90;;;;;;5000623;28;20279;-68
2023/11/20 03:45:16;;;;;;;3.73;1.10;;;10.30;99.90;;;;;;5004108;28;20226;-69
2023/11/20 03:47:41;;;;;;;2.07;0.80;;;10.30;99.90;;;;;;4974895;28;20188;-68
2023/11/20 03:50:07;;;;;;;3.40;0.93;;;10.30;99.90;;;;;;4974512;28;20464;-68
2023/11/20 03:52:33;;;;;;;3.33;1.03;;;10.40;99.90;;;;;;4974206;28;20192;-68
2023/11/20 03:54:59;;;;;;;7.20;1.13;;;10.50;99.90;;;;;;4973771;28;20432;-68
2023/11/20 03:57:24;;;;;;;4.30;1.20;;;10.60;99.90;;;;;;4993919;28;20178;-69
2023/11/20 03:59:50;;;;;;;5.63;1.30;;;10.80;99.90;;;;;;4974002;28;20188;-67
2023/11/20 04:02:18;;;;;;;3.20;0.93;;;10.80;99.90;;;;;;4974820;28;20251;-69
2023/11/20 04:04:44;;;;;;;4.77;1.27;;;10.80;99.90;;;;;;4975060;28;20221;-68
2023/11/20 04:07:12;;;;;;;2.50;0.90;;;10.80;99.90;;;;;;4974408;28;20844;-68
2023/11/20 04:09:37;;;;;;;3.60;1.20;;;10.80;99.90;;;;;;4973929;28;20416;-68
2023/11/20 04:12:03;;;;;;;2.90;0.90;;;10.80;99.90;;;;;;4986554;28;20483;-68
2023/11/20 04:14:29;;;;;;;2.57;0.90;;;10.80;99.90;;;;;;4991925;28;20789;-69
2023/11/20 04:16:55;;;;;;;1.77;0.90;;;10.90;99.90;;;;;;4978159;28;20441;-69
2023/11/20 04:19:20;;;;;;;4.67;1.20;;;10.80;99.90;;;;;;4973571;28;20253;-69
2023/11/20 04:21:46;;;;;;;4.50;1.60;;;10.80;99.90;;;;;;4972742;28;20198;-68
2023/11/20 04:24:12;;;;;;;3.23;1.37;;;10.70;99.90;;;;;;4972654;28;20227;-68
2023/11/20 04:26:38;;;;;;;4.20;1.10;;;10.70;99.90;;;;;;4974179;28;20196;-68
2023/11/20 04:29:04;;;;;;;3.47;1.23;;;10.80;99.90;;;;;;5004291;28;20911;-68
2023/11/20 04:31:30;;;;;;;1.43;0.90;;;10.80;99.90;;;;;;4989942;28;20467;-68
2023/11/20 04:33:56;;;;;;;1.83;0.80;;;10.80;99.90;;;;;;4973833;28;20493;-68
2023/11/20 04:36:21;;;;;;;4.37;1.50;;;10.80;99.90;;;;;;4973983;28;20504;-68
2023/11/20 04:38:47;;;;;;;3.87;1.20;;;10.80;99.90;;;;;;4974135;28;20202;-68
2023/11/20 04:41:13;;;;;;;3.10;1.23;;;10.90;99.90;;;;;;4974442;28;20192;-68
2023/11/20 04:43:39;;;;;;;4.47;0.90;;;10.90;99.90;;;;;;4977302;28;20461;-68
2023/11/20 04:46:09;;;;;;;4.10;1.50;;;10.90;99.90;;;;;;4982415;28;20506;-68
2023/11/20 04:48:35;;;;;;;4.67;1.47;;;10.90;99.90;;;;;;4974097;28;20263;-69
2023/11/20 04:51:00;;;;;;;3.97;1.10;;;10.90;99.90;;;;;;4973485;28;20557;-68
2023/11/20 04:53:26;;;;;;;4.40;1.10;;;10.90;99.90;;;;;;4975203;28;20523;-68
2023/11/20 04:55:52;;;;;;;3.60;1.40;;;10.90;99.90;;;;;;4974494;28;20275;-68
2023/11/20 04:58:21;;;;;;;4.70;1.40;;;10.90;99.90;;;;;;5024460;28;20591;-69
2023/11/20 05:00:48;;;;;;;4.23;1.47;;;10.90;99.90;;;;;;4975788;28;20185;-69
2023/11/20 05:03:15;;;;;;;2.70;1.60;;;10.90;99.90;;;;;;4974046;28;20446;-69
2023/11/20 05:05:40;;;;;;;2.00;1.20;;;10.90;99.90;;;;;;4973087;28;20449;-68
2023/11/20 05:08:06;;;;;;;2.20;1.17;;;10.90;99.90;;;;;;4973908;28;20706;-68
2023/11/20 05:10:31;;;;;;;3.73;1.50;;;10.80;99.90;;;;;;4973875;28;20198;-67
2023/11/20 05:12:57;;;;;;;4.93;1.77;;;10.80;99.90;;;;;;5021750;28;20213;-69
2023/11/20 05:15:23;;;;;;;3.70;1.30;;;10.80;99.90;;;;;;5022863;28;20493;-69
2023/11/20 05:17:48;;;;;;;3.10;0.90;;;10.80;99.90;;;;;;4974311;28;20530;-68
2023/11/20 05:20:14;;;;;;;3.87;1.30;;;10.80;99.90;;;;;;4977500;28;20198;-68
2023/11/20 05:22:39;;;;;;;6.53;1.90;;;10.90;99.90;;;;;;4977619;28;20181;-69
2023/11/20 05:25:05;;;;;;;5.80;1.53;;;10.90;99.90;;;;;;4977652;28;20655;-70
2023/11/20 05:27:31;;;;;;;6.70;2.00;;;10.90;99.90;;;;;;5008766;28;20703;-68
2023/11/20 05:29:56;;;;;;;7.07;1.80;;;11.00;99.90;;;;;;4985235;28;20680;-68
2023/11/20 05:32:22;;;;;;;4.47;1.67;;;11.00;99.90;;;;;;4977315;28;20227;-68
2023/11/20 05:34:48;;;;;;;5.53;2.00;;;11.00;99.90;;;;;;4976722;28;20242;-69
2023/11/20 05:37:13;;;;;;;5.10;2.10;;;11.00;99.90;;;;;;4976386;28;20200;-69
2023/11/20 05:39:39;;;;;;;5.63;2.40;;;11.00;99.90;;;;;;4976799;28;20200;-68
2023/11/20 05:42:06;;;;;;;4.57;1.30;;;11.00;99.90;;;;;;4989936;28;20213;-69
2023/11/20 05:44:32;;;;;;;6.67;2.27;;;11.00;99.90;;;;;;5013285;28;20198;-70
2023/11/20 05:46:57;;;;;;;5.93;1.90;;;11.00;99.90;;;;;;4999642;28;20461;-69
2023/11/20 05:49:23;;;;;;;6.90;1.80;;;11.00;99.90;;;;;;4977304;28;20279;-70
2023/11/20 05:51:48;;;;;;;10.90;3.00;;;11.00;99.90;;;;;;4978050;28;20226;-69
2023/11/20 05:54:14;;;;;;;7.17;2.10;;;11.00;99.90;;;;;;4977578;28;20303;-68
2023/11/20 05:56:41;;;;;;;6.87;1.93;;;11.00;99.90;;;;;;4976573;28;20364;-70
2023/11/20 05:59:08;;;;;;;3.37;1.17;;;11.00;99.90;;;;;;5006390;28;20194;-68
2023/11/20 06:01:41;;;;;;;11.07;2.60;;;10.90;99.90;;;;;;4977719;28;20560;-69
2023/11/20 06:04:08;;;;;;;7.97;2.80;;;10.90;99.90;;;;;;4978044;28;20441;-70
2023/11/20 06:06:38;;;;;;;7.33;2.70;;;10.80;99.90;;;;;;4977337;28;20727;-71
2023/11/20 06:09:05;;;;;;;9.63;2.43;;;10.80;99.90;;;;;;4979804;28;20856;-69
2023/11/20 06:11:32;;;;;;;11.80;3.30;;;10.80;99.90;;;;;;4980799;28;20463;-71
2023/11/20 06:14:00;;;;;;;11.13;3.10;;;10.70;99.90;;;;;;4986457;28;20457;-71
2023/11/20 06:16:26;;;;;;;8.03;2.97;;;10.60;99.90;;;;;;4984545;28;20797;-69
2023/11/20 06:18:52;;;;;;;11.03;2.53;;;10.50;99.90;;;;;;4979325;28;20664;-69
2023/11/20 06:21:18;;;;;;;8.57;2.20;;;10.50;99.90;;;;;;4979635;28;20212;-71
2023/11/20 06:23:43;;;;;;;9.97;2.37;;;10.50;99.90;;;;;;4979865;28;20424;-71
2023/11/20 06:26:09;;;;;;;8.13;2.50;;;10.50;99.90;;;;;;4979284;28;20217;-70
2023/11/20 06:28:35;;;;;;;6.50;2.20;;;10.50;99.90;;;;;;4999048;28;20431;-72
2023/11/20 06:31:00;;;;;;;9.27;2.97;;;10.50;99.90;;;;;;4976886;28;20201;-70
2023/11/20 06:33:26;;;;;;;10.27;2.77;;;10.50;99.90;;;;;;4978810;28;20199;-72
2023/11/20 06:35:51;;;;;;;9.20;2.33;;;10.50;99.90;;;;;;4979685;28;20277;-73
2023/11/20 06:38:17;;;;;;;12.17;2.90;;;10.50;99.90;;;;;;4978704;28;20229;-72
2023/11/20 06:40:42;;;;;;;13.80;2.67;;;10.40;99.90;;;;;;4979831;28;20189;-72
2023/11/20 06:43:08;;;;;;;8.77;2.00;;;10.40;99.90;;;;;;4989930;28;20209;-73
2023/11/20 06:45:35;;;;;;;11.60;3.03;;;10.40;99.90;;;;;;4997853;28;20295;-72
2023/11/20 06:48:01;;;;;;;8.50;2.50;;;10.50;99.90;;;;;;4978902;28;20396;-73
2023/11/20 06:50:27;;;;;;;7.00;2.40;;;10.50;99.90;;;;;;4978789;28;20470;-72
2023/11/20 06:52:56;;;;;;;6.90;2.20;;;10.50;99.90;;;;;;4979388;28;20432;-68
2023/11/20 06:55:25;;;;;;;7.10;2.57;;;10.50;99.90;;;;;;4979255;28;20451;-72
2023/11/20 06:57:52;;;;;;;8.77;2.37;;;10.60;99.90;;;;;;4986028;28;20792;-73
2023/11/20 07:00:18;;;;;;;16.43;3.40;;;10.60;99.90;;;;;;4978619;28;20473;-69
2023/11/20 07:02:44;;;;;;;12.00;2.50;;;10.70;99.90;;;;;;4977253;28;20208;-69
2023/11/20 07:05:15;;;;;;;9.93;2.40;;;10.70;99.90;;;;;;4977697;28;20442;-69
2023/11/20 07:07:50;;;;;;;6.40;1.93;;;10.70;99.90;;;;;;4978025;28;20479;-71
2023/11/20 07:10:23;;;;;;;5.10;1.87;;;10.80;99.90;;;;;;4978372;28;20412;-70
2023/11/20 07:12:50;;;;;;;7.10;2.97;;;10.80;99.90;;;;;;4980470;28;20916;-71
2023/11/20 07:15:16;;;;;;;7.40;2.00;;;10.80;99.90;;;;;;4986958;28;20479;-69
2023/11/20 07:17:41;;;;;;;8.50;1.77;;;10.80;99.90;;;;;;4979307;28;20440;-70
2023/11/20 07:20:08;;;;;;;13.00;3.37;;;10.80;99.90;;;;;;4978660;28;20188;-72
2023/11/20 07:22:35;;;;;;;5.60;1.60;;;10.80;99.90;;;;;;4978738;28;20182;-70
2023/11/20 07:25:01;;;;;;;5.40;2.00;;;10.80;99.90;;;;;;4977213;28;20559;-70
2023/11/20 07:27:26;;;;;;;8.73;2.63;;;10.90;99.90;;;;;;5007165;28;20481;-70
2023/11/20 07:29:52;;;;;;;9.37;2.30;;;10.90;99.90;;;;;;4999920;28;20196;-72
2023/11/20 07:32:18;;;;;;;8.73;3.17;;;10.80;99.90;;;;;;4979348;28;20192;-71
2023/11/20 07:34:43;;;;;;;7.67;1.80;;;10.90;99.90;;;;;;4981955;28;20231;-70
2023/11/20 07:37:09;;;;;;;4.63;2.00;;;10.90;99.90;;;;;;4980911;28;20187;-71
2023/11/20 07:39:34;;;;;;;6.37;2.20;;;11.00;99.90;;;;;;4979165;28;20209;-70
2023/11/20 07:42:00;;;;;;;6.40;2.30;;;11.00;99.90;;;;;;4986721;28;20210;-70
2023/11/20 07:44:26;;;;;;;16.47;3.57;;;11.00;99.90;;;;;;5020736;28;20207;-72
2023/11/20 07:46:52;;;;;;;8.43;3.00;;;11.00;99.90;;;;;;5014623;28;20201;-73
2023/11/20 07:49:21;;;;;;;7.33;3.40;;;11.10;99.90;;;;;;4989714;28;20432;-77
2023/11/20 07:51:47;;;;;;;7.87;2.40;;;11.10;99.90;;;;;;4974770;28;20467;-78
2023/11/20 07:54:13;;;;;;;8.93;2.53;;;11.10;99.90;;;;;;4990677;28;20476;-78
2023/11/20 07:56:38;;;;;;;9.47;2.77;;;11.10;99.90;;;;;;4992868;28;20195;-79
2023/11/20 07:59:06;;;;;;;7.50;2.10;;;11.10;99.90;;;;;;5088858;28;20399;-80
2023/11/20 08:01:32;;;;;;;6.30;1.93;;;11.10;99.90;;;;;;5039065;28;20169;-81
2023/11/20 08:03:58;;;;;;;7.43;2.33;;;11.20;99.90;;;;;;4992549;28;20434;-78
2023/11/20 08:06:26;;;;;;;8.43;2.30;;;11.20;99.90;;;;;;4971494;28;20270;-82
2023/11/20 08:08:52;;;;;;;8.57;2.23;;;11.20;99.90;;;;;;5019875;28;20464;-79
2023/11/20 08:11:19;;;;;;;11.17;2.40;;;11.10;99.90;;;;;;5028574;28;20429;-79
2023/11/20 08:13:45;;;;;;;9.80;2.90;;;11.00;99.90;;;;;;5057930;28;20447;-78
2023/11/20 08:16:10;;;;;;;9.77;2.57;;;11.00;99.90;;;;;;5079171;28;20414;-79
2023/11/20 08:18:36;;;;;;;6.83;2.13;;;10.90;99.90;;;;;;5077869;28;20376;-79
2023/11/20 08:21:02;;;;;;;5.30;2.00;;;10.90;99.90;;;;;;5094244;28;20173;-78
2023/11/20 08:23:29;;;;;;;3.90;2.17;;;11.00;99.90;;;;;;4985943;28;20197;-81
2023/11/20 08:25:57;;;;;;;10.53;2.80;;;11.10;99.90;;;;;;4994687;28;20456;-79
2023/11/20 08:28:27;;;;;;;11.10;2.67;;;11.20;99.90;;;;;;4962867;28;20407;-81
2023/11/20 08:30:57;;;;;;;5.77;2.33;;;11.30;99.90;;;;;;4979575;28;20424;-79
2023/11/20 08:33:24;;;;;;;9.83;3.70;;;11.30;99.90;;;;;;4976981;28;20447;-80
2023/11/20 08:36:13;;;;;;;10.67;2.23;;;11.20;99.90;;;;;;4993894;28;20432;-83
2023/11/20 08:38:47;;;;;;;7.70;1.83;;;11.30;99.90;;;;;;4994693;28;20430;-79
2023/11/20 08:41:17;;;;;;;6.80;2.40;;;11.30;99.90;;;;;;4963078;28;20448;-80
2023/11/20 08:43:44;;;;;;;7.20;1.90;;;11.40;99.90;;;;;;4993967;28;20434;-80
2023/11/20 08:46:14;;;;;;;11.13;2.40;;;11.50;99.90;;;;;;4978665;28;20425;-83
2023/11/20 08:49:09;;;;;;;7.00;2.00;;;11.70;99.90;;;;;;4980903;28;20432;-81
2023/11/20 08:51:59;;;;;;;10.27;2.73;;;11.80;99.90;;;;;;4977815;28;20568;-81
2023/11/20 08:54:48;;;;;;;9.43;2.73;;;11.90;99.90;;;;;;4996391;28;20487;-79
2023/11/20 08:57:17;;;;;;;7.77;2.33;;;11.90;99.90;;;;;;4985401;28;20414;-82
2023/11/20 08:59:51;;;;;;;6.37;2.50;;;12.00;99.90;;;;;;5083660;28;20456;-84
2023/11/20 09:02:20;;;;;;;9.13;2.57;;;12.10;99.90;;;;;;5084069;28;20824;-82
2023/11/20 09:04:47;;;;;;;8.07;2.20;;;12.20;99.90;;;;;;5078713;28;20458;-81
2023/11/20 09:10:30;;;;;;;7.40;2.10;;;12.40;99.90;;;;;;5179603;23;20534;-78
2023/11/20 09:12:58;;;;;;;13.03;3.07;;;12.50;99.90;;;;;;4927956;29;20442;-82
2023/11/20 09:15:26;;;;;;;8.70;2.10;;;12.60;99.90;;;;;;4926739;29;20186;-81
2023/11/20 09:18:07;;;;;;;7.13;2.00;;;12.70;99.90;;;;;;4928283;29;20418;-81
2023/11/20 09:33:04;;;;;;;4.70;1.83;;;12.20;99.90;;;;;;5013677;23;20507;-77
2023/11/20 09:35:31;;;;;;;6.67;2.47;;;12.10;99.90;;;;;;4960319;29;20445;-80
2023/11/20 09:37:58;;;;;;;9.53;2.30;;;12.10;99.90;;;;;;4913578;29;20181;-79
2023/11/20 09:40:35;;;;;;;4.07;1.27;;;12.10;99.90;;;;;;4946354;29;20470;-80
2023/11/20 09:43:45;;;;;;;6.93;1.80;;;12.20;99.90;;;;;;4953032;29;20419;-81
2023/11/20 09:46:18;;;;;;;6.43;2.67;;;12.20;99.90;;;;;;4947322;29;20450;-83
2023/11/20 09:48:48;;;;;;;6.63;1.53;;;12.20;99.90;;;;;;4929148;29;20420;-77
2023/11/20 09:51:39;;;;;;;7.30;2.00;;;12.30;99.90;;;;;;4926410;29;20423;-79
2023/11/20 09:54:08;;;;;;;6.53;1.57;;;12.30;99.90;;;;;;4942212;29;20488;-79
2023/11/20 09:56:36;;;;;;;10.20;2.70;;;12.40;99.90;;;;;;4958193;29;20465;-78
2023/11/20 09:59:03;;;;;;;5.57;1.83;;;12.50;99.90;;;;;;4943572;29;20469;-78
2023/11/20 10:01:30;;;;;;;5.57;1.67;;;12.60;99.90;;;;;;4945480;29;20414;-80
2023/11/20 10:03:58;;;;;;;7.67;1.77;;;12.60;99.90;;;;;;4944391;29;20846;-81
2023/11/20 10:06:54;;;;;;;5.40;1.90;;;12.70;99.90;;;;;;4944244;29;20434;-80
2023/11/20 10:09:59;;;;;;;7.60;2.63;;;12.70;99.90;;;;;;4928641;29;20460;-81
2023/11/20 10:12:28;;;;;;;8.60;2.73;;;12.70;99.90;;;;;;4914374;29;20440;-82
2023/11/20 10:15:23;;;;;;;3.30;1.70;;;12.80;99.90;;;;;;4960383;29;20469;-83
2023/11/20 10:17:55;;;;;;;6.43;2.03;;;12.80;99.90;;;;;;4961400;29;20441;-82
2023/11/20 10:25:55;;;;;;;4.80;1.60;;;13.00;99.90;;;;;;5168510;23;20481;-85
2023/11/20 10:28:26;;;;;;;6.40;2.20;;;13.00;99.90;;;;;;4942772;29;20423;-81
2023/11/20 10:36:35;;;;;;;4.03;1.70;;;13.00;99.90;;;;;;5114145;23;20481;-81
2023/11/20 10:39:02;;;;;;;5.03;2.00;;;12.90;99.90;;;;;;4925789;29;20430;-80
2023/11/20 10:41:29;;;;;;;3.93;1.77;;;12.80;99.90;;;;;;4942560;29;20433;-80
2023/11/20 10:44:01;;;;;;;4.27;1.90;;;12.70;99.90;;;;;;4927153;29;20430;-84
2023/11/20 10:49:49;;;;;;;6.77;2.70;;;12.60;99.90;;;;;;5705298;23;20436;-69
2023/11/20 10:52:25;;;;;;;6.93;2.10;;;12.50;99.90;;;;;;4926451;29;20530;-71
2023/11/20 10:54:51;;;;;;;2.73;1.40;;;12.40;99.90;;;;;;4921514;29;20482;-72
2023/11/20 10:57:18;;;;;;;3.37;1.80;;;12.30;99.90;;;;;;4905479;29;20921;-70
2023/11/20 10:59:45;;;;;;;3.63;1.90;;;12.30;99.90;;;;;;4912943;29;20183;-79
2023/11/20 11:04:51;;;;;;;7.30;2.70;;;12.20;99.90;;;;;;4921839;27;20469;-80
2023/11/20 11:07:43;;;;;;;4.87;2.33;;;12.10;99.90;;;;;;4925835;29;20415;-82
2023/11/20 11:10:50;;;;;;;7.03;1.93;;;12.00;99.90;;;;;;4929036;29;20423;-84
2023/11/20 11:15:54;;;;;;;4.73;1.93;;;12.10;99.90;;;;;;5263374;23;20470;-84
2023/11/20 11:19:04;;;;;;;4.33;1.67;;;12.20;99.90;;;;;;4909481;29;20403;-83
2023/11/20 11:21:56;;;;;;;5.50;2.70;;;12.20;99.90;;;;;;4932209;29;20446;-78
2023/11/20 11:27:26;;;;;;;13.03;4.50;;;12.40;99.90;;;;;;3199140;27;20585;-82
2023/11/20 11:33:30;;;;;;;4.10;2.10;;;12.50;99.90;;;;;;3914593;27;20552;-81
2023/11/20 11:36:08;;;;;;;5.03;1.80;;;12.50;99.90;;;;;;4925462;29;20461;-81
2023/11/20 11:39:13;;;;;;;6.80;2.57;;;12.50;99.90;;;;;;4941121;29;20398;-79
2023/11/20 11:42:09;;;;;;;7.40;2.97;;;12.60;99.90;;;;;;4950845;23;20482;-81
2023/11/20 11:44:40;;;;;;;4.13;1.40;;;12.50;99.90;;;;;;4920866;29;20587;-80
2023/11/20 11:47:11;;;;;;;6.90;1.33;;;12.30;99.90;;;;;;4937157;29;20419;-78
2023/11/20 11:49:40;;;;;;;6.13;2.43;;;12.00;99.90;;;;;;4906174;29;20456;-80
2023/11/20 11:52:27;;;;;;;3.93;1.57;;;11.70;99.90;;;;;;4906945;29;20419;-81
2023/11/20 11:55:14;;;;;;;3.07;1.40;;;11.40;99.90;;;;;;4921497;29;20481;-82
2023/11/20 11:58:02;;;;;;;3.10;1.10;;;11.10;99.90;;;;;;4922953;29;20460;-80
2023/11/20 12:00:30;;;;;;;3.00;1.00;;;11.10;99.90;;;;;;4907106;29;20416;-79
2023/11/20 12:03:11;;;;;;;2.73;1.43;;;11.10;99.90;;;;;;4906154;29;20406;-80
2023/11/20 12:06:05;;;;;;;5.40;1.77;;;11.10;99.90;;;;;;4905891;29;20439;-84
2023/11/20 12:14:16;;;;;;;2.20;1.27;;;11.00;99.90;;;;;;5546995;23;20502;-82
2023/11/20 12:36:37;;;;;;;5.13;2.50;;;10.80;99.90;;;;;;5246072;23;20489;-79
2023/11/20 12:39:06;;;;;;;4.87;1.93;;;10.90;99.90;;;;;;4936978;29;20488;-81
2023/11/20 12:41:51;;;;;;;5.40;1.90;;;10.90;99.90;;;;;;5214939;23;20495;-80
2023/11/20 12:44:17;;;;;;;7.80;1.50;;;10.90;99.90;;;;;;4905154;29;20467;-79
2023/11/20 12:46:52;;;;;;;4.67;1.90;;;10.90;99.90;;;;;;4904841;29;20422;-81
2023/11/20 12:49:18;;;;;;;3.43;1.40;;;10.90;99.90;;;;;;4918134;29;20523;-79
2023/11/20 12:51:45;;;;;;;6.00;1.40;;;11.00;99.90;;;;;;4915341;29;20494;-81
2023/11/20 12:54:11;;;;;;;5.20;1.73;;;11.10;99.90;;;;;;4936929;29;20761;-81
2023/11/20 12:56:47;;;;;;;5.87;1.40;;;11.20;99.90;;;;;;4951884;28;20484;-80
2023/11/20 12:59:13;;;;;;;4.80;1.67;;;11.40;99.90;;;;;;4920740;29;20419;-80
2023/11/20 13:01:41;;;;;;;6.57;2.37;;;11.50;99.90;;;;;;4904184;29;20432;-79
2023/11/20 13:04:12;;;;;;;3.13;1.87;;;11.50;99.90;;;;;;4905415;29;20179;-82
2023/11/20 13:06:39;;;;;;;9.07;2.13;;;11.50;99.90;;;;;;4903076;29;20447;-79
2023/11/20 13:09:07;;;;;;;4.50;1.47;;;11.50;99.90;;;;;;4919674;29;20474;-81
2023/11/20 13:11:44;;;;;;;5.60;1.87;;;11.40;99.90;;;;;;4912244;29;20470;-79
2023/11/20 13:14:17;;;;;;;3.43;1.33;;;11.30;99.90;;;;;;4920158;29;20482;-80
2023/11/20 13:16:43;;;;;;;5.13;2.00;;;11.20;99.90;;;;;;4887268;29;20434;-78
2023/11/20 13:19:42;;;;;;;5.67;1.93;;;11.00;99.90;;;;;;4920164;29;20405;-80
2023/11/20 13:22:10;;;;;;;2.47;1.47;;;10.90;99.90;;;;;;4920790;29;20431;-80
2023/11/20 13:24:47;;;;;;;4.83;2.60;;;10.80;99.90;;;;;;4904220;29;20467;-80
2023/11/20 13:27:13;;;;;;;7.43;2.20;;;10.70;99.90;;;;;;4909122;29;20506;-78
2023/11/20 13:29:39;;;;;;;4.63;1.87;;;10.60;99.90;;;;;;4902114;29;20415;-79
2023/11/20 13:32:22;;;;;;;5.80;2.30;;;10.50;99.90;;;;;;4883936;29;20396;-80
2023/11/20 13:34:48;;;;;;;6.43;2.27;;;10.40;99.90;;;;;;4882833;29;20563;-79
2023/11/20 13:37:22;;;;;;;6.13;2.90;;;10.30;99.90;;;;;;4903622;29;20479;-82
2023/11/20 13:39:52;;;;;;;8.17;2.50;;;10.30;99.90;;;;;;4885814;29;20439;-77
2023/11/20 13:42:19;;;;;;;6.63;2.73;;;10.20;99.90;;;;;;4903976;29;20456;-79
2023/11/20 13:44:45;;;;;;;5.17;1.30;;;10.20;99.90;;;;;;4906357;29;20450;-78
2023/11/20 13:47:13;;;;;;;6.50;2.03;;;10.20;99.90;;;;;;4906828;29;20194;-80
2023/11/20 13:50:11;;;;;;;2.83;1.60;;;10.30;99.90;;;;;;4891170;29;20416;-80
2023/11/20 13:52:40;;;;;;;5.87;1.63;;;10.40;99.90;;;;;;4922970;29;20426;-81
2023/11/20 13:55:10;;;;;;;2.40;1.33;;;10.60;99.90;;;;;;4906930;29;20486;-81
2023/11/20 13:57:42;;;;;;;2.57;1.30;;;10.70;99.90;;;;;;4891804;29;20418;-79
2023/11/20 14:00:19;;;;;;;9.83;2.23;;;10.90;99.90;;;;;;4908707;29;20428;-82
2023/11/20 14:02:51;;;;;;;3.33;1.63;;;10.90;99.90;;;;;;4908173;29;20411;-79